Time;durP1;ratioP1;P1;durP2;ratioP2;P2;SDS_P1;SDS_P2;PMS_P1;PMS_P2;Temp;Humidity;BMP_temperature;BMP_pressure;BME280_temperature;BME280_humidity;BME280_pressure;Samples;Min_cycle;Max_cycle;Signal;HPM_P1;HPM_P2
2021/01/31 00:02:12;;;;;;;;;;;2.20;99.90;;;;;;5035041;28;19910;-78
2021/01/31 00:07:14;;;;;;;;;;;2.30;99.90;;;;;;5570780;23;19926;-79
2021/01/31 00:09:40;;;;;;;;;;;2.50;99.90;;;;;;5011539;28;20258;-79
2021/01/31 00:12:06;;;;;;;;;;;2.20;99.90;;;;;;5011474;28;19926;-79
2021/01/31 00:14:33;;;;;;;;;;;2.30;99.90;;;;;;5010549;28;19932;-79
2021/01/31 00:17:00;;;;;;;;;;;2.30;99.90;;;;;;5014899;28;19925;-79
2021/01/31 00:19:26;;;;;;;;;;;2.30;99.90;;;;;;5016786;28;19926;-79
2021/01/31 00:21:56;;;;;;;;;;;2.30;99.90;;;;;;5013916;28;19926;-79
2021/01/31 00:24:22;;;;;;;;;;;2.30;99.90;;;;;;5010277;28;19930;-79
2021/01/31 00:26:49;;;;;;;;;;;2.30;99.90;;;;;;5010308;28;19936;-79
2021/01/31 00:29:15;;;;;;;;;;;2.30;99.90;;;;;;5010831;28;19926;-79
2021/01/31 00:31:43;;;;;;;;;;;2.30;99.90;;;;;;5010721;28;19926;-79
2021/01/31 00:34:10;;;;;;;;;;;2.30;99.90;;;;;;5010443;28;19925;-79
2021/01/31 00:36:37;;;;;;;;;;;2.30;99.90;;;;;;5012394;28;19928;-79
2021/01/31 00:39:03;;;;;;;;;;;2.20;99.90;;;;;;5012698;28;19926;-79
2021/01/31 00:41:30;;;;;;;;;;;2.20;99.90;;;;;;5012853;28;19936;-79
2021/01/31 00:43:56;;;;;;;;;;;2.20;99.90;;;;;;5011844;28;19926;-79
2021/01/31 00:46:22;;;;;;;;;;;2.20;99.90;;;;;;5012937;28;19930;-79
2021/01/31 00:48:49;;;;;;;;;;;2.20;99.90;;;;;;5010938;28;19926;-79
2021/01/31 00:51:16;;;;;;;;;;;2.20;99.90;;;;;;5011063;28;19925;-79
2021/01/31 00:53:42;;;;;;;;;;;2.20;99.90;;;;;;5010363;28;19929;-79
2021/01/31 00:56:08;;;;;;;;;;;2.20;99.90;;;;;;5010099;28;19944;-79
2021/01/31 00:58:35;;;;;;;;;;;2.20;99.90;;;;;;5010756;28;19926;-79
2021/01/31 01:01:01;;;;;;;;;;;2.20;99.90;;;;;;5010887;28;20297;-79
2021/01/31 01:03:27;;;;;;;;;;;2.20;99.90;;;;;;5008242;28;19925;-78
2021/01/31 01:05:54;;;;;;;;;;;2.20;99.90;;;;;;5010881;28;19925;-79
2021/01/31 01:08:21;;;;;;;;;;;2.10;99.90;;;;;;5011138;28;19926;-79
2021/01/31 01:10:47;;;;;;;;;;;2.10;99.90;;;;;;5012096;28;19932;-78
2021/01/31 01:13:14;;;;;;;;;;;2.20;99.90;;;;;;5011558;28;19926;-79
2021/01/31 01:15:40;;;;;;;;;;;2.20;99.90;;;;;;5011225;28;19926;-79
2021/01/31 01:18:06;;;;;;;;;;;2.10;99.90;;;;;;5011412;28;19936;-79
2021/01/31 01:20:33;;;;;;;;;;;2.10;99.90;;;;;;5011301;28;19929;-79
2021/01/31 01:22:59;;;;;;;;;;;2.10;99.90;;;;;;5009642;28;20258;-79
2021/01/31 01:25:26;;;;;;;;;;;2.10;99.90;;;;;;5010262;28;19936;-79
2021/01/31 01:27:53;;;;;;;;;;;2.10;99.90;;;;;;5010341;28;19925;-79
2021/01/31 01:30:20;;;;;;;;;;;2.10;99.90;;;;;;5008405;28;19932;-79
2021/01/31 01:32:47;;;;;;;;;;;2.10;99.90;;;;;;5007821;28;19926;-79
2021/01/31 01:35:13;;;;;;;;;;;2.10;99.90;;;;;;5008873;28;19952;-79
2021/01/31 01:37:39;;;;;;;;;;;2.10;99.90;;;;;;5008363;28;19972;-79
2021/01/31 01:40:06;;;;;;;;;;;2.10;99.90;;;;;;5009907;28;19940;-78
2021/01/31 01:42:33;;;;;;;;;;;2.10;99.90;;;;;;5008024;28;19929;-78
2021/01/31 01:45:00;;;;;;;;;;;2.10;99.90;;;;;;5008043;28;19926;-78
2021/01/31 01:47:26;;;;;;;;;;;2.10;99.90;;;;;;5007581;28;19936;-79
2021/01/31 01:49:54;;;;;;;;;;;2.10;99.90;;;;;;5008400;28;19926;-79
2021/01/31 01:52:21;;;;;;;;;;;2.10;99.90;;;;;;5008366;28;19926;-79
2021/01/31 01:54:49;;;;;;;;;;;2.10;99.90;;;;;;5014850;28;20507;-79
2021/01/31 01:57:15;;;;;;;;;;;2.10;99.90;;;;;;5014287;28;19926;-79
2021/01/31 01:59:43;;;;;;;;;;;2.10;99.90;;;;;;5006905;28;19929;-79
2021/01/31 02:02:10;;;;;;;;;;;2.10;99.90;;;;;;5008217;28;19926;-79
2021/01/31 02:04:37;;;;;;;;;;;2.10;99.90;;;;;;5006788;28;19932;-79
2021/01/31 02:07:03;;;;;;;;;;;2.10;99.90;;;;;;5011015;28;19926;-79
2021/01/31 02:09:30;;;;;;;;;;;2.10;99.90;;;;;;5013316;28;19952;-79
2021/01/31 02:11:57;;;;;;;;;;;2.10;99.90;;;;;;5013543;28;19925;-79
2021/01/31 02:14:24;;;;;;;;;;;2.10;99.90;;;;;;5012767;28;19932;-79
2021/01/31 02:16:53;;;;;;;;;;;2.10;99.90;;;;;;5013174;28;19925;-79
2021/01/31 02:19:38;;;;;;;;;;;2.00;99.90;;;;;;5013364;28;19926;-78
2021/01/31 02:22:10;;;;;;;;;;;2.10;99.90;;;;;;5012783;28;19948;-78
2021/01/31 02:24:37;;;;;;;;;;;2.10;99.90;;;;;;5012584;28;19930;-79
2021/01/31 02:27:18;;;;;;;;;;;2.00;99.90;;;;;;5011742;28;19952;-78
2021/01/31 02:29:52;;;;;;;;;;;2.10;99.90;;;;;;5009463;28;19930;-79
2021/01/31 02:32:29;;;;;;;;;;;2.00;99.90;;;;;;5011406;28;19926;-79
2021/01/31 02:34:57;;;;;;;;;;;2.00;99.90;;;;;;5011950;28;20007;-79
2021/01/31 02:37:24;;;;;;;;;;;2.10;99.90;;;;;;5011985;28;19936;-79
2021/01/31 02:39:52;;;;;;;;;;;2.00;99.90;;;;;;5012438;28;19925;-79
2021/01/31 02:42:23;;;;;;;;;;;2.00;99.90;;;;;;5012091;28;19926;-79
2021/01/31 02:44:53;;;;;;;;;;;2.00;99.90;;;;;;5012236;28;19926;-79
2021/01/31 02:47:20;;;;;;;;;;;2.00;99.90;;;;;;5011519;28;20377;-79
2021/01/31 02:49:49;;;;;;;;;;;2.00;99.90;;;;;;5011256;28;19956;-79
2021/01/31 02:52:17;;;;;;;;;;;2.00;99.90;;;;;;5011401;28;19926;-79
2021/01/31 02:54:49;;;;;;;;;;;2.00;99.90;;;;;;5011127;28;19926;-79
2021/01/31 02:57:16;;;;;;;;;;;2.00;99.90;;;;;;5011052;28;20021;-79
2021/01/31 02:59:44;;;;;;;;;;;1.90;99.90;;;;;;5010835;28;19936;-79
2021/01/31 03:02:12;;;;;;;;;;;1.90;99.90;;;;;;5010864;28;19925;-79
2021/01/31 03:04:39;;;;;;;;;;;1.90;99.90;;;;;;5010794;28;20331;-79
2021/01/31 03:07:07;;;;;;;;;;;1.90;99.90;;;;;;5010571;28;19926;-79
2021/01/31 03:09:34;;;;;;;;;;;1.90;99.90;;;;;;5010959;28;19936;-79
2021/01/31 03:12:01;;;;;;;;;;;1.90;99.90;;;;;;5011804;28;20263;-79
2021/01/31 03:14:29;;;;;;;;;;;1.90;99.90;;;;;;5014749;28;19926;-79
2021/01/31 03:16:56;;;;;;;;;;;1.80;99.90;;;;;;5014136;28;19949;-79
2021/01/31 03:19:23;;;;;;;;;;;1.90;99.90;;;;;;5014544;28;19921;-79
2021/01/31 03:21:50;;;;;;;;;;;1.80;99.90;;;;;;5013330;28;20239;-79
2021/01/31 03:24:18;;;;;;;;;;;1.80;99.90;;;;;;5008938;28;19936;-79
2021/01/31 03:26:47;;;;;;;;;;;1.80;99.90;;;;;;5008292;28;19926;-79
2021/01/31 03:29:13;;;;;;;;;;;1.80;99.90;;;;;;5008266;28;20346;-79
2021/01/31 03:31:41;;;;;;;;;;;1.80;99.90;;;;;;5007180;28;19930;-79
2021/01/31 03:34:07;;;;;;;;;;;1.80;99.90;;;;;;5007904;28;19926;-79
2021/01/31 03:36:34;;;;;;;;;;;1.80;99.90;;;;;;5007698;28;19926;-79
2021/01/31 03:39:00;;;;;;;;;;;1.80;99.90;;;;;;5007439;28;19925;-79
2021/01/31 03:41:27;;;;;;;;;;;1.80;99.90;;;;;;5007465;28;19929;-79
2021/01/31 03:43:54;;;;;;;;;;;1.80;99.90;;;;;;5007775;28;19926;-79
2021/01/31 03:46:23;;;;;;;;;;;1.80;99.90;;;;;;5007154;28;19925;-79
2021/01/31 03:48:50;;;;;;;;;;;1.80;99.90;;;;;;5007208;28;19936;-79
2021/01/31 03:51:16;;;;;;;;;;;1.80;99.90;;;;;;5007286;28;19936;-78
2021/01/31 03:53:42;;;;;;;;;;;1.80;99.90;;;;;;5007568;28;19929;-78
2021/01/31 03:56:09;;;;;;;;;;;1.80;99.90;;;;;;5007330;28;20381;-78
2021/01/31 03:58:35;;;;;;;;;;;1.80;99.90;;;;;;5006857;28;19956;-78
2021/01/31 04:01:02;;;;;;;;;;;1.80;99.90;;;;;;5005926;28;19926;-78
2021/01/31 04:03:30;;;;;;;;;;;1.80;99.90;;;;;;5006622;28;19926;-78
2021/01/31 04:05:57;;;;;;;;;;;1.80;99.90;;;;;;5005190;28;19936;-78
2021/01/31 04:08:24;;;;;;;;;;;1.80;99.90;;;;;;5007405;28;19936;-78
2021/01/31 04:10:50;;;;;;;;;;;1.80;99.90;;;;;;5011102;28;19932;-79
2021/01/31 04:13:16;;;;;;;;;;;1.70;99.90;;;;;;5008590;28;20280;-79
2021/01/31 04:15:43;;;;;;;;;;;1.70;99.90;;;;;;5005672;28;19936;-78
2021/01/31 04:18:11;;;;;;;;;;;1.70;99.90;;;;;;5006300;28;19925;-78
2021/01/31 04:20:37;;;;;;;;;;;1.70;99.90;;;;;;5005643;28;19932;-78
2021/01/31 04:23:03;;;;;;;;;;;1.70;99.90;;;;;;5005726;28;19929;-78
2021/01/31 04:25:30;;;;;;;;;;;1.70;99.90;;;;;;5005619;28;19980;-78
2021/01/31 04:27:56;;;;;;;;;;;1.60;99.90;;;;;;5005705;28;19925;-79
2021/01/31 04:30:22;;;;;;;;;;;1.60;99.90;;;;;;5006594;28;19926;-79
2021/01/31 04:32:49;;;;;;;;;;;1.70;99.90;;;;;;5006189;28;20305;-78
2021/01/31 04:35:16;;;;;;;;;;;1.60;99.90;;;;;;5005820;28;19926;-78
2021/01/31 04:37:42;;;;;;;;;;;1.70;99.90;;;;;;5006235;28;19926;-78
2021/01/31 04:40:10;;;;;;;;;;;1.60;99.90;;;;;;5006457;28;19925;-78
2021/01/31 04:42:36;;;;;;;;;;;1.60;99.90;;;;;;5004800;28;19980;-79
2021/01/31 04:45:03;;;;;;;;;;;1.60;99.90;;;;;;5006037;28;19930;-79
2021/01/31 04:47:29;;;;;;;;;;;1.60;99.90;;;;;;5006821;28;19979;-78
2021/01/31 04:50:02;;;;;;;;;;;1.60;99.90;;;;;;5006262;28;19926;-78
2021/01/31 04:52:31;;;;;;;;;;;1.60;99.90;;;;;;5006526;28;20040;-78
2021/01/31 04:55:03;;;;;;;;;;;1.50;99.90;;;;;;5008699;28;19933;-78
2021/01/31 04:57:30;;;;;;;;;;;1.50;99.90;;;;;;5008763;28;19925;-79
2021/01/31 04:59:56;;;;;;;;;;;1.50;99.90;;;;;;5008071;28;19926;-79
2021/01/31 05:02:23;;;;;;;;;;;1.50;99.90;;;;;;5007761;28;19940;-79
2021/01/31 05:04:50;;;;;;;;;;;1.40;99.90;;;;;;5007354;28;19925;-79
2021/01/31 05:07:17;;;;;;;;;;;1.50;99.90;;;;;;5006998;28;19948;-79
2021/01/31 05:09:44;;;;;;;;;;;1.40;99.90;;;;;;5006943;28;19936;-79
2021/01/31 05:12:12;;;;;;;;;;;1.40;99.90;;;;;;5007331;28;19976;-79
2021/01/31 05:15:02;;;;;;;;;;;1.40;99.90;;;;;;5006255;28;20000;-79
2021/01/31 05:17:29;;;;;;;;;;;1.30;99.90;;;;;;4987138;28;19926;-79
2021/01/31 05:19:55;;;;;;;;;;;1.30;99.90;;;;;;5007419;28;19944;-79
2021/01/31 05:22:23;;;;;;;;;;;1.30;99.90;;;;;;5007974;28;19925;-79
2021/01/31 05:24:51;;;;;;;;;;;1.20;99.90;;;;;;5007788;28;19937;-79
2021/01/31 05:27:18;;;;;;;;;;;1.20;99.90;;;;;;5008292;28;19925;-79
2021/01/31 05:29:44;;;;;;;;;;;1.20;99.90;;;;;;5006324;28;20455;-79
2021/01/31 05:32:11;;;;;;;;;;;1.10;99.90;;;;;;5006985;28;19926;-79
2021/01/31 05:34:38;;;;;;;;;;;1.10;99.90;;;;;;5007433;28;19926;-79
2021/01/31 05:37:05;;;;;;;;;;;1.10;99.90;;;;;;5007399;28;19926;-79
2021/01/31 05:39:35;;;;;;;;;;;1.10;99.90;;;;;;5006763;28;20004;-79
2021/01/31 05:42:04;;;;;;;;;;;1.10;99.90;;;;;;5010966;28;20377;-78
2021/01/31 05:44:31;;;;;;;;;;;1.10;99.90;;;;;;5010531;28;19926;-79
2021/01/31 05:46:58;;;;;;;;;;;1.10;99.90;;;;;;5010397;28;19926;-79
2021/01/31 05:49:31;;;;;;;;;;;1.10;99.90;;;;;;5010163;28;19979;-79
2021/01/31 05:51:58;;;;;;;;;;;1.10;99.90;;;;;;5010731;28;19932;-79
2021/01/31 05:54:26;;;;;;;;;;;1.10;99.90;;;;;;5010642;28;19932;-79
2021/01/31 05:56:53;;;;;;;;;;;1.10;99.90;;;;;;5010965;28;19929;-79
2021/01/31 05:59:20;;;;;;;;;;;1.10;99.90;;;;;;5012896;28;19926;-79
2021/01/31 06:01:50;;;;;;;;;;;1.10;99.90;;;;;;5012885;28;19930;-79
2021/01/31 06:04:17;;;;;;;;;;;1.10;99.90;;;;;;5011686;28;19926;-79
2021/01/31 06:06:43;;;;;;;;;;;1.10;99.90;;;;;;5012522;28;19933;-79
2021/01/31 06:09:12;;;;;;;;;;;1.10;99.90;;;;;;5012718;28;19953;-79
2021/01/31 06:11:38;;;;;;;;;;;1.10;99.90;;;;;;5012538;28;19926;-79
2021/01/31 06:14:05;;;;;;;;;;;1.10;99.90;;;;;;5013010;28;19926;-79
2021/01/31 06:16:32;;;;;;;;;;;1.00;99.90;;;;;;5012577;28;19952;-79
2021/01/31 06:19:00;;;;;;;;;;;1.10;99.90;;;;;;5011746;28;19936;-79
2021/01/31 06:21:34;;;;;;;;;;;1.10;99.90;;;;;;5012383;28;19926;-79
2021/01/31 06:24:01;;;;;;;;;;;1.00;99.90;;;;;;5011859;28;19925;-79
2021/01/31 06:26:28;;;;;;;;;;;1.10;99.90;;;;;;5011575;28;20276;-79
2021/01/31 06:28:54;;;;;;;;;;;1.00;99.90;;;;;;5010239;28;19926;-79
2021/01/31 06:31:25;;;;;;;;;;;1.00;99.90;;;;;;5011587;28;19926;-79
2021/01/31 06:33:52;;;;;;;;;;;1.00;99.90;;;;;;5011314;28;19926;-79
2021/01/31 06:36:31;;;;;;;;;;;1.00;99.90;;;;;;5011720;28;19926;-79
2021/01/31 06:39:04;;;;;;;;;;;1.00;99.90;;;;;;5011747;28;19926;-79
2021/01/31 06:41:38;;;;;;;;;;;1.00;99.90;;;;;;5012036;28;19926;-78
2021/01/31 06:44:05;;;;;;;;;;;1.00;99.90;;;;;;5011698;28;19925;-79
2021/01/31 06:46:33;;;;;;;;;;;1.00;99.90;;;;;;5012325;28;19937;-79
2021/01/31 06:49:06;;;;;;;;;;;1.00;99.90;;;;;;5011806;28;19926;-79
2021/01/31 06:51:38;;;;;;;;;;;1.00;99.90;;;;;;5011698;28;19930;-79
2021/01/31 06:54:12;;;;;;;;;;;1.00;99.90;;;;;;5012683;28;19932;-79
2021/01/31 06:56:51;;;;;;;;;;;1.00;99.90;;;;;;5012085;28;20362;-79
2021/01/31 06:59:27;;;;;;;;;;;1.00;99.90;;;;;;5012572;28;19926;-79
2021/01/31 07:01:59;;;;;;;;;;;1.00;99.90;;;;;;5014574;28;19930;-79
2021/01/31 07:04:40;;;;;;;;;;;1.00;99.90;;;;;;5014000;28;19981;-79
2021/01/31 07:07:25;;;;;;;;;;;1.00;99.90;;;;;;5007628;28;20397;-79
2021/01/31 07:10:09;;;;;;;;;;;1.00;99.90;;;;;;5004089;28;19936;-79
2021/01/31 07:12:37;;;;;;;;;;;1.00;99.90;;;;;;4997732;28;19969;-79
2021/01/31 07:15:04;;;;;;;;;;;1.10;99.90;;;;;;5009238;28;19987;-79
2021/01/31 07:17:33;;;;;;;;;;;1.10;99.90;;;;;;5011748;28;19993;-79
2021/01/31 07:20:00;;;;;;;;;;;1.10;99.90;;;;;;5012190;28;19925;-79
2021/01/31 07:22:31;;;;;;;;;;;1.10;99.90;;;;;;5013283;28;19932;-79
2021/01/31 07:24:59;;;;;;;;;;;1.10;99.90;;;;;;5015388;28;19968;-79
2021/01/31 07:27:28;;;;;;;;;;;1.10;99.90;;;;;;5016600;28;19986;-79
2021/01/31 07:30:01;;;;;;;;;;;1.10;99.90;;;;;;5019378;28;19926;-79
2021/01/31 07:32:28;;;;;;;;;;;1.10;99.90;;;;;;5017752;28;19981;-78
2021/01/31 07:38:03;;;;;;;;;;;1.10;99.90;;;;;;5010090;28;19965;-79
2021/01/31 07:40:38;;;;;;;;;;;1.30;99.90;;;;;;5000252;28;19926;-79
2021/01/31 07:43:04;;;;;;;;;;;1.10;99.90;;;;;;5431024;23;19927;-79
2021/01/31 07:45:32;;;;;;;;;;;1.20;99.90;;;;;;4985270;28;21260;-80
2021/01/31 07:48:16;;;;;;;;;;;1.20;99.90;;;;;;4986608;28;19926;-80
2021/01/31 07:50:43;;;;;;;;;;;1.30;99.90;;;;;;4986693;28;19933;-80
2021/01/31 07:53:10;;;;;;;;;;;1.30;99.90;;;;;;4986773;28;19926;-80
2021/01/31 07:55:38;;;;;;;;;;;1.30;99.90;;;;;;4987258;28;19926;-80
2021/01/31 07:58:11;;;;;;;;;;;1.30;99.90;;;;;;4986761;28;19976;-80
2021/01/31 08:00:41;;;;;;;;;;;1.30;99.90;;;;;;4987047;28;20294;-80
2021/01/31 08:03:17;;;;;;;;;;;1.30;99.90;;;;;;4986990;28;19926;-80
2021/01/31 08:05:51;;;;;;;;;;;1.30;99.90;;;;;;4986824;28;19926;-80
2021/01/31 08:08:32;;;;;;;;;;;1.40;99.90;;;;;;4986975;28;20377;-80
2021/01/31 08:10:59;;;;;;;;;;;1.30;99.90;;;;;;4986621;28;19926;-78
2021/01/31 08:13:32;;;;;;;;;;;1.40;99.90;;;;;;4984591;28;19940;-77
2021/01/31 08:15:58;;;;;;;;;;;1.30;99.90;;;;;;4984078;28;19933;-77
2021/01/31 08:18:25;;;;;;;;;;;1.30;99.90;;;;;;4985128;28;19936;-77
2021/01/31 08:20:51;;;;;;;;;;;1.30;99.90;;;;;;4986067;28;19926;-77
2021/01/31 08:23:51;;;;;;;;;;;1.30;99.90;;;;;;4980695;28;19926;-77
2021/01/31 08:26:36;;;;;;;;;;;1.30;99.90;;;;;;4969894;28;20340;-77
2021/01/31 08:29:03;;;;;;;;;;;1.30;99.90;;;;;;4972449;28;19930;-77
2021/01/31 08:31:30;;;;;;;;;;;1.30;99.90;;;;;;4974537;28;19926;-78
2021/01/31 08:33:59;;;;;;;;;;;1.30;99.90;;;;;;4979422;28;19926;-78
2021/01/31 08:36:26;;;;;;;;;;;1.30;99.90;;;;;;4977421;28;19930;-77
2021/01/31 08:38:53;;;;;;;;;;;1.30;99.90;;;;;;4978542;28;19926;-77
2021/01/31 08:41:43;;;;;;;;;;;1.40;99.90;;;;;;4975167;28;19936;-77
2021/01/31 08:44:28;;;;;;;;;;;1.40;99.90;;;;;;4976428;28;20008;-77
2021/01/31 08:46:56;;;;;;;;;;;1.40;99.90;;;;;;4965768;28;20355;-77
2021/01/31 08:49:22;;;;;;;;;;;1.50;99.90;;;;;;4966440;29;19962;-78
2021/01/31 08:51:55;;;;;;;;;;;1.50;99.90;;;;;;4966816;28;19926;-78
2021/01/31 08:54:21;;;;;;;;;;;1.40;99.90;;;;;;4967276;29;19926;-78
2021/01/31 08:56:48;;;;;;;;;;;1.50;99.90;;;;;;4965780;29;19926;-78
2021/01/31 08:59:15;;;;;;;;;;;1.50;99.90;;;;;;4965712;29;19989;-78
2021/01/31 09:01:41;;;;;;;;;;;1.50;99.90;;;;;;4966005;29;19927;-78
2021/01/31 09:04:09;;;;;;;;;;;1.50;99.90;;;;;;4966304;29;19927;-78
2021/01/31 09:06:36;;;;;;;;;;;1.60;99.90;;;;;;4966222;29;19930;-77
2021/01/31 09:09:03;;;;;;;;;;;1.60;99.90;;;;;;4965440;28;19926;-77
2021/01/31 09:11:29;;;;;;;;;;;1.70;99.90;;;;;;4966216;29;19926;-77
2021/01/31 09:13:55;;;;;;;;;;;1.70;99.90;;;;;;4966405;28;19937;-78
2021/01/31 09:16:22;;;;;;;;;;;1.70;99.90;;;;;;4966014;29;19926;-77
2021/01/31 09:18:50;;;;;;;;;;;1.70;99.90;;;;;;4967061;29;19937;-77
2021/01/31 09:21:25;;;;;;;;;;;1.80;99.90;;;;;;4965566;29;19926;-77
2021/01/31 09:23:52;;;;;;;;;;;1.80;99.90;;;;;;4966414;29;19927;-77
2021/01/31 09:26:19;;;;;;;;;;;1.90;99.90;;;;;;4966450;28;19926;-78
2021/01/31 09:28:45;;;;;;;;;;;1.90;99.90;;;;;;4966917;29;20290;-78
2021/01/31 09:31:11;;;;;;;;;;;1.90;99.90;;;;;;4966672;29;19926;-78
2021/01/31 09:33:40;;;;;;;;;;;1.90;99.90;;;;;;4966395;29;19926;-78
2021/01/31 09:36:17;;;;;;;;;;;2.00;99.90;;;;;;4968250;28;19936;-78
2021/01/31 09:38:44;;;;;;;;;;;2.00;99.90;;;;;;4968319;29;20339;-78
2021/01/31 09:41:10;;;;;;;;;;;2.00;99.90;;;;;;4967873;29;19949;-78
2021/01/31 09:43:37;;;;;;;;;;;2.00;99.90;;;;;;4967879;29;19945;-78
2021/01/31 09:46:03;;;;;;;;;;;2.10;99.90;;;;;;4967701;28;19948;-78
2021/01/31 09:48:30;;;;;;;;;;;2.10;99.90;;;;;;4968343;29;19980;-78
2021/01/31 09:50:58;;;;;;;;;;;2.10;99.90;;;;;;4968674;28;19926;-77
2021/01/31 09:53:30;;;;;;;;;;;2.10;99.90;;;;;;4966932;28;19927;-78
2021/01/31 09:55:57;;;;;;;;;;;2.10;99.90;;;;;;4967116;29;19936;-78
2021/01/31 09:58:24;;;;;;;;;;;2.10;99.90;;;;;;4967486;29;19927;-78
2021/01/31 10:00:51;;;;;;;;;;;2.20;99.90;;;;;;4968995;29;19926;-78
2021/01/31 10:03:22;;;;;;;;;;;2.20;99.90;;;;;;4969363;29;19926;-78
2021/01/31 10:05:48;;;;;;;;;;;2.20;99.90;;;;;;4969872;29;19934;-78
2021/01/31 10:08:15;;;;;;;;;;;2.20;99.90;;;;;;4969306;29;20418;-78
2021/01/31 10:10:41;;;;;;;;;;;2.20;99.90;;;;;;4966672;29;19937;-78
2021/01/31 10:13:22;;;;;;;;;;;2.20;99.90;;;;;;4966035;29;19937;-78
2021/01/31 10:15:52;;;;;;;;;;;2.20;99.90;;;;;;4967880;29;20417;-78
2021/01/31 10:18:33;;;;;;;;;;;2.20;99.90;;;;;;4967775;28;20344;-78
2021/01/31 10:21:12;;;;;;;;;;;2.30;99.90;;;;;;4963978;29;19926;-78
2021/01/31 10:23:38;;;;;;;;;;;2.30;99.90;;;;;;4966949;29;19953;-78
2021/01/31 10:26:05;;;;;;;;;;;2.30;99.90;;;;;;4968014;28;19931;-78
2021/01/31 10:28:33;;;;;;;;;;;2.40;99.90;;;;;;4970817;28;19981;-78
2021/01/31 10:30:59;;;;;;;;;;;2.40;99.90;;;;;;4971166;28;19937;-78
2021/01/31 10:33:36;;;;;;;;;;;2.40;99.90;;;;;;4971417;29;19926;-78
2021/01/31 10:36:14;;;;;;;;;;;2.40;99.90;;;;;;4971111;29;19926;-78
2021/01/31 10:38:42;;;;;;;;;;;2.40;99.90;;;;;;4971234;29;19926;-78
2021/01/31 10:41:08;;;;;;;;;;;2.40;99.90;;;;;;4972044;28;19953;-78
2021/01/31 10:43:35;;;;;;;;;;;2.40;99.90;;;;;;4971414;28;20319;-78
2021/01/31 10:46:01;;;;;;;;;;;2.50;99.90;;;;;;4970795;29;19936;-77
2021/01/31 10:48:28;;;;;;;;;;;2.50;99.90;;;;;;4971440;29;19927;-77
2021/01/31 10:50:54;;;;;;;;;;;2.50;99.90;;;;;;4970488;29;19927;-77
2021/01/31 10:53:20;;;;;;;;;;;2.50;99.90;;;;;;4969792;28;19994;-77
2021/01/31 10:55:47;;;;;;;;;;;2.50;99.90;;;;;;4976170;28;19926;-77
2021/01/31 10:58:13;;;;;;;;;;;2.50;99.90;;;;;;5007843;28;19925;-77
2021/01/31 11:00:40;;;;;;;;;;;2.50;99.90;;;;;;5009866;28;19925;-80
2021/01/31 11:03:07;;;;;;;;;;;2.50;99.90;;;;;;5009839;28;19926;-80
2021/01/31 11:05:33;;;;;;;;;;;2.50;99.90;;;;;;5009797;28;19936;-80
2021/01/31 11:08:00;;;;;;;;;;;2.50;99.90;;;;;;5010277;28;20016;-80
2021/01/31 11:10:26;;;;;;;;;;;2.60;99.90;;;;;;5009285;28;19932;-78
2021/01/31 11:12:52;;;;;;;;;;;2.60;99.90;;;;;;5009185;28;19936;-78
2021/01/31 11:15:19;;;;;;;;;;;2.60;99.90;;;;;;5008531;28;19926;-78
2021/01/31 11:17:46;;;;;;;;;;;2.60;99.90;;;;;;5008413;28;19930;-78
2021/01/31 11:20:12;;;;;;;;;;;2.60;99.90;;;;;;5007536;28;19926;-78
2021/01/31 11:22:38;;;;;;;;;;;2.60;99.90;;;;;;5008869;28;20005;-78
2021/01/31 11:25:05;;;;;;;;;;;2.60;99.90;;;;;;5008797;28;20362;-78
2021/01/31 11:27:32;;;;;;;;;;;2.70;99.90;;;;;;5008758;28;19926;-78
2021/01/31 11:29:58;;;;;;;;;;;2.70;99.90;;;;;;5008921;28;19930;-78
2021/01/31 11:32:25;;;;;;;;;;;2.70;99.90;;;;;;5007954;28;19960;-78
2021/01/31 11:34:54;;;;;;;;;;;2.70;99.90;;;;;;5003025;28;19926;-77
2021/01/31 11:37:21;;;;;;;;;;;2.70;99.90;;;;;;5004113;28;20314;-78
2021/01/31 11:39:48;;;;;;;;;;;2.70;99.90;;;;;;5005091;28;19926;-77
2021/01/31 11:42:14;;;;;;;;;;;2.80;99.90;;;;;;5004656;28;19926;-77
2021/01/31 11:44:42;;;;;;;;;;;2.80;99.90;;;;;;5007358;28;19925;-77
2021/01/31 11:47:09;;;;;;;;;;;2.80;99.90;;;;;;5006442;28;19929;-77
2021/01/31 11:49:36;;;;;;;;;;;2.90;99.90;;;;;;5005739;28;19941;-78
2021/01/31 11:52:04;;;;;;;;;;;2.80;99.90;;;;;;5006621;28;20373;-78
2021/01/31 11:54:31;;;;;;;;;;;2.80;99.90;;;;;;5006702;28;19925;-78
2021/01/31 11:56:59;;;;;;;;;;;2.80;99.90;;;;;;5008273;28;19925;-78
2021/01/31 11:59:26;;;;;;;;;;;2.80;99.90;;;;;;5006865;28;19930;-78
2021/01/31 12:01:53;;;;;;;;;;;2.90;99.90;;;;;;4998286;28;19926;-78
2021/01/31 12:04:19;;;;;;;;;;;2.80;99.90;;;;;;5006907;28;19925;-78
2021/01/31 12:06:47;;;;;;;;;;;2.80;99.90;;;;;;4989145;28;20033;-77
2021/01/31 12:09:19;;;;;;;;;;;2.80;99.90;;;;;;5006928;28;19926;-77
2021/01/31 12:11:47;;;;;;;;;;;2.80;99.90;;;;;;5007735;28;19983;-77
2021/01/31 12:14:14;;;;;;;;;;;2.80;99.90;;;;;;5006199;28;19948;-78
2021/01/31 12:16:42;;;;;;;;;;;2.80;99.90;;;;;;5007190;28;19932;-78
2021/01/31 12:19:08;;;;;;;;;;;2.80;99.90;;;;;;5007606;28;19925;-78
2021/01/31 12:21:36;;;;;;;;;;;2.80;99.90;;;;;;5007439;28;19925;-78
2021/01/31 12:24:03;;;;;;;;;;;2.80;99.90;;;;;;5007808;28;19936;-78
2021/01/31 12:26:31;;;;;;;;;;;2.90;99.90;;;;;;5008306;28;19930;-78
2021/01/31 12:28:58;;;;;;;;;;;2.90;99.90;;;;;;5007860;28;19925;-78
2021/01/31 12:31:26;;;;;;;;;;;2.90;99.90;;;;;;5007186;28;19926;-78
2021/01/31 12:33:52;;;;;;;;;;;3.00;99.90;;;;;;5007431;28;19926;-78
2021/01/31 12:36:18;;;;;;;;;;;3.00;99.90;;;;;;5006323;28;19925;-78
2021/01/31 12:38:47;;;;;;;;;;;3.00;99.90;;;;;;5205760;23;19925;-81
2021/01/31 12:41:13;;;;;;;;;;;2.90;99.90;;;;;;5034388;28;19926;-79
2021/01/31 12:43:42;;;;;;;;;;;3.10;99.90;;;;;;5589611;23;19926;-81
2021/01/31 12:46:10;;;;;;;;;;;3.00;99.90;;;;;;5038184;28;19917;-80
2021/01/31 12:48:37;;;;;;;;;;;3.20;99.90;;;;;;5035733;28;19913;-80
2021/01/31 12:53:40;;;;;;;;;;;3.10;99.90;;;;;;5768940;23;19949;-81
2021/01/31 12:58:58;;;;;;;;;;;3.10;99.90;;;;;;5078806;23;19921;-82
2021/01/31 13:01:25;;;;;;;;;;;2.20;99.90;;;;;;5494211;23;19932;-79
2021/01/31 13:03:52;;;;;;;;;;;3.50;99.90;;;;;;5009534;28;20024;-78
2021/01/31 13:06:19;;;;;;;;;;;3.50;99.90;;;;;;5013160;28;19930;-78
2021/01/31 13:08:45;;;;;;;;;;;3.20;99.90;;;;;;5073282;23;19956;-79
2021/01/31 13:11:12;;;;;;;;;;;3.10;99.90;;;;;;5027052;28;19926;-78
2021/01/31 13:13:38;;;;;;;;;;;3.10;99.90;;;;;;5026534;28;19939;-78
2021/01/31 13:16:04;;;;;;;;;;;3.10;99.90;;;;;;5023979;28;19926;-78
2021/01/31 13:18:32;;;;;;;;;;;3.00;99.90;;;;;;5025052;28;19936;-78
2021/01/31 13:20:58;;;;;;;;;;;3.10;99.90;;;;;;5026745;28;19930;-78
2021/01/31 13:23:24;;;;;;;;;;;3.00;99.90;;;;;;5024517;28;19925;-78
2021/01/31 13:25:51;;;;;;;;;;;3.00;99.90;;;;;;5024291;28;19932;-78
2021/01/31 13:28:17;;;;;;;;;;;3.00;99.90;;;;;;5023811;28;19951;-78
2021/01/31 13:30:43;;;;;;;;;;;3.00;99.90;;;;;;5022441;28;20381;-78
2021/01/31 13:33:10;;;;;;;;;;;3.00;99.90;;;;;;5023000;28;19925;-79
2021/01/31 13:35:37;;;;;;;;;;;3.00;99.90;;;;;;5027544;28;19926;-79
2021/01/31 13:38:04;;;;;;;;;;;3.00;99.90;;;;;;5026088;28;20334;-79
2021/01/31 13:40:30;;;;;;;;;;;3.10;99.90;;;;;;5023341;28;19936;-79
2021/01/31 13:42:56;;;;;;;;;;;3.10;99.90;;;;;;5022671;28;19936;-78
2021/01/31 13:45:23;;;;;;;;;;;3.10;99.90;;;;;;5022134;28;19925;-78
2021/01/31 13:47:49;;;;;;;;;;;3.10;99.90;;;;;;5022738;28;20360;-78
2021/01/31 13:50:16;;;;;;;;;;;3.10;99.90;;;;;;5022858;28;19925;-78
2021/01/31 13:52:43;;;;;;;;;;;3.10;99.90;;;;;;5022809;28;19926;-78
2021/01/31 13:55:11;;;;;;;;;;;3.20;99.90;;;;;;5022810;28;20380;-78
2021/01/31 13:57:37;;;;;;;;;;;3.20;99.90;;;;;;5022654;28;19925;-78
2021/01/31 14:00:04;;;;;;;;;;;3.20;99.90;;;;;;5022774;28;19925;-78
2021/01/31 14:02:31;;;;;;;;;;;3.20;99.90;;;;;;5026595;28;19932;-78
2021/01/31 14:04:57;;;;;;;;;;;3.20;99.90;;;;;;5028650;28;19935;-78
2021/01/31 14:07:23;;;;;;;;;;;3.20;99.90;;;;;;5028826;28;19925;-79
2021/01/31 14:09:50;;;;;;;;;;;3.20;99.90;;;;;;5028470;28;19925;-79
2021/01/31 14:12:17;;;;;;;;;;;3.20;99.90;;;;;;5029183;28;20358;-79
2021/01/31 14:14:43;;;;;;;;;;;3.20;99.90;;;;;;5028747;28;19925;-79
2021/01/31 14:17:13;;;;;;;;;;;3.30;99.90;;;;;;5029501;28;19926;-79
2021/01/31 14:19:41;;;;;;;;;;;3.30;99.90;;;;;;5030881;28;19926;-79
2021/01/31 14:22:08;;;;;;;;;;;3.40;99.90;;;;;;5030705;28;20415;-79
2021/01/31 14:24:35;;;;;;;;;;;3.30;99.90;;;;;;5031508;28;20313;-79
2021/01/31 14:27:08;;;;;;;;;;;3.30;99.90;;;;;;5032581;28;19948;-79
2021/01/31 14:29:41;;;;;;;;;;;3.40;99.90;;;;;;5031549;28;19925;-79
2021/01/31 14:32:11;;;;;;;;;;;3.30;99.90;;;;;;5030816;28;20453;-79
2021/01/31 14:34:37;;;;;;;;;;;3.30;99.90;;;;;;5028939;28;19952;-79
2021/01/31 14:37:07;;;;;;;;;;;3.30;99.90;;;;;;5030485;28;19957;-79
2021/01/31 14:39:37;;;;;;;;;;;3.30;99.90;;;;;;5029609;28;19926;-78
2021/01/31 14:42:11;;;;;;;;;;;3.20;99.90;;;;;;5029670;28;19929;-78
2021/01/31 14:44:38;;;;;;;;;;;3.20;99.90;;;;;;5028738;28;19925;-78
2021/01/31 14:47:05;;;;;;;;;;;3.20;99.90;;;;;;5028218;28;19948;-78
2021/01/31 14:49:32;;;;;;;;;;;3.10;99.90;;;;;;5030255;28;19929;-78